Aérodrome :
LOGIN :

S'inscrire | Disclaimer

   EN    FR    IT 

 










Légende :    VFR   VFR Marginal   IFR   IFR Intensif   IFR Très Intensif
Visi : 
Plafond : 
>= 8 km
>= 3000ft
5 à 8 km
1000 à 3000 ft
1500m à 5 km
500 à 1000 ft
800 à 1500m
200 à 500 ft
< 800m
< 200 ft
Symboles :   Orages  Brouillard  Fortes neiges  Fortes précipitations  Vent > 20 kt
SIGMETs :   Divers  Orages  Givrage  Turbulence  Onde Orograph.  Cendres Volcan.







- Altitude de l'aérodrome : 1079 ft


ETIK - Illesheim Air Base

DERNIER METAR :
  • 181856Z AUTO 28005KT 9999 CLR 20/12 A3020 RMK AO2 SLP221 T01950115 $

METARs EXPIRÉS :
  • 181756Z AUTO 28008KT 9999 FEW055 21/11 A3020 RMK AO2 SLP221 T02140114 10237 20214 53001 $

TAF AMD TAF ETIK
Valide du 18 à 15h jusqu'au 19 à 17h UTC


181549Z 1815/1917 26009KT 9999 BKN060 QNH3015INS
BECMG 1817/1818 VRB06KT 9999 SCT050 QNH3017INS
BECMG 1905/1906 30009KT 9999 BKN030 QNH3018INS TX22/1815Z TN12/1904Z
Pas de NOTAMs connus pour ce terrain.



MET'MAP, la Météo Aéronautique d'un coup d'oeil ! - Copyright ORBIFLY Décembre 2007 - Disclaimer

ORBIFLY MET'MAP TEAM :

Programmation & Développement : Alexandra Zaïnal
Conception & Développement : Baudouin d'Aumeries
Co-Programmation & Développement : Marc-Olivier Méhu
Soutien technique & logistique : Manuel Goepfert

Contact : metmap@orbifly.com




SOURCES & CREDITS :

   NOAA